Time;durP1;ratioP1;P1;durP2;ratioP2;P2;SDS_P1;SDS_P2;PMS_P1;PMS_P2;Temp;Humidity;BMP_temperature;BMP_pressure;BME280_temperature;BME280_humidity;BME280_pressure;Samples;Min_cycle;Max_cycle;Signal;HPM_P1;HPM_P2
2022/03/16 00:01:13;;;;;;;9.65;4.22;;;;;;;0.31;100.00;97320.91;5031435;28;20041;-73
2022/03/16 00:03:39;;;;;;;7.40;4.38;;;;;;;0.29;100.00;97318.47;5029261;28;20542;-70
2022/03/16 00:06:04;;;;;;;9.48;4.07;;;;;;;0.23;100.00;97325.22;5031350;28;20399;-74
2022/03/16 00:08:31;;;;;;;6.38;3.97;;;;;;;0.18;100.00;97318.78;5030862;28;20029;-71
2022/03/16 00:10:59;;;;;;;7.13;3.83;;;;;;;0.12;100.00;97322.06;5032759;28;20125;-70
2022/03/16 00:13:25;;;;;;;8.07;3.78;;;;;;;-0.02;100.00;97320.88;5030621;28;20038;-73
2022/03/16 00:15:51;;;;;;;7.28;4.00;;;;;;;-0.10;100.00;97323.47;5031977;28;20134;-71
2022/03/16 00:18:19;;;;;;;6.65;3.65;;;;;;;-0.19;100.00;97330.53;5031912;28;20034;-71
2022/03/16 00:20:46;;;;;;;7.60;3.80;;;;;;;-0.22;100.00;97330.03;5033291;28;20562;-74
2022/03/16 00:23:12;;;;;;;8.45;3.80;;;;;;;-0.31;100.00;97327.38;5029995;28;20060;-72
2022/03/16 00:25:38;;;;;;;6.25;3.70;;;;;;;-0.24;100.00;97324.09;5032068;28;20420;-73
2022/03/16 00:28:03;;;;;;;6.13;3.72;;;;;;;-0.26;100.00;97310.28;5029317;28;20045;-71
2022/03/16 00:30:29;;;;;;;8.80;4.65;;;;;;;-0.22;100.00;97311.63;5029879;28;20495;-71
2022/03/16 00:32:55;;;;;;;8.65;4.43;;;;;;;-0.17;100.00;97315.41;5034679;28;20033;-71
2022/03/16 00:35:20;;;;;;;10.07;5.30;;;;;;;-0.05;100.00;97321.19;5032338;28;20033;-70
2022/03/16 00:37:46;;;;;;;11.65;4.93;;;;;;;-0.01;100.00;97322.50;5030574;28;20044;-75
2022/03/16 00:40:14;;;;;;;8.57;5.07;;;;;;;-0.02;100.00;97326.94;5030018;28;20033;-71
2022/03/16 00:42:40;;;;;;;11.52;5.20;;;;;;;-0.01;100.00;97318.06;5045447;28;20056;-73
2022/03/16 00:45:06;;;;;;;7.68;4.95;;;;;;;0.07;100.00;97314.63;5032316;28;20472;-72
2022/03/16 00:47:33;;;;;;;9.80;5.07;;;;;;;0.13;100.00;97318.44;5033153;28;20471;-74
2022/03/16 00:49:58;;;;;;;9.52;5.15;;;;;;;0.12;100.00;97312.34;5030950;28;20030;-74
2022/03/16 00:52:24;;;;;;;8.68;4.35;;;;;;;-0.11;100.00;97324.47;5032111;28;20507;-70
2022/03/16 00:54:49;;;;;;;7.22;4.38;;;;;;;-0.29;100.00;97324.59;5029225;28;20037;-71
2022/03/16 00:57:17;;;;;;;7.32;4.13;;;;;;;-0.28;100.00;97321.78;5036515;28;20033;-71
2022/03/16 00:59:42;;;;;;;7.60;4.25;;;;;;;-0.25;100.00;97312.75;5043578;28;20432;-72
2022/03/16 01:02:08;;;;;;;8.85;4.90;;;;;;;-0.35;100.00;97317.31;5028208;28;20667;-73
2022/03/16 01:04:33;;;;;;;9.63;5.28;;;;;;;-0.26;100.00;97323.44;5032474;28;20061;-72
2022/03/16 01:06:59;;;;;;;9.98;5.68;;;;;;;-0.16;100.00;97313.59;5030776;28;20047;-70
2022/03/16 01:09:25;;;;;;;10.93;5.13;;;;;;;0.04;100.00;97320.22;5031046;28;20152;-70
2022/03/16 01:11:50;;;;;;;11.13;5.40;;;;;;;0.13;100.00;97313.16;5031097;28;20037;-74
2022/03/16 01:14:17;;;;;;;5.93;3.65;;;;;;;0.18;100.00;97313.50;5033054;28;20076;-71
2022/03/16 01:16:43;;;;;;;9.73;4.85;;;;;;;0.14;100.00;97301.66;5034238;28;20375;-73
2022/03/16 01:19:08;;;;;;;10.38;5.88;;;;;;;0.12;100.00;97307.09;5028655;28;20044;-71
2022/03/16 01:21:34;;;;;;;8.48;4.80;;;;;;;0.21;100.00;97311.38;5030061;28;20060;-70
2022/03/16 01:24:01;;;;;;;8.15;3.67;;;;;;;0.24;100.00;97308.44;5031777;28;20454;-74
2022/03/16 01:26:27;;;;;;;5.28;3.20;;;;;;;0.32;100.00;97322.59;5031684;28;20045;-74
2022/03/16 01:28:52;;;;;;;7.97;4.95;;;;;;;0.31;100.00;97305.13;5031104;28;20029;-74
2022/03/16 01:31:21;;;;;;;9.98;5.63;;;;;;;0.27;100.00;97304.63;5028764;28;20491;-71
2022/03/16 01:33:46;;;;;;;9.65;5.53;;;;;;;0.27;100.00;97302.81;5028762;28;20045;-71
2022/03/16 01:36:14;;;;;;;13.20;6.40;;;;;;;0.30;100.00;97306.94;5027826;28;20044;-72
2022/03/16 01:38:40;;;;;;;11.60;5.35;;;;;;;0.41;100.00;97300.53;5030293;28;20034;-71
2022/03/16 01:41:06;;;;;;;14.32;6.05;;;;;;;0.40;100.00;97305.00;5029194;28;20037;-75
2022/03/16 01:43:32;;;;;;;11.52;5.82;;;;;;;0.41;100.00;97305.81;5027882;28;20050;-71
2022/03/16 01:45:59;;;;;;;10.35;5.50;;;;;;;0.42;100.00;97302.19;5028296;28;20106;-71
2022/03/16 01:48:25;;;;;;;13.85;5.35;;;;;;;0.39;100.00;97305.13;5028577;28;20037;-74
2022/03/16 01:50:50;;;;;;;8.68;4.93;;;;;;;0.28;100.00;97312.38;5029196;28;20624;-71
2022/03/16 01:53:17;;;;;;;9.93;4.65;;;;;;;0.28;100.00;97304.47;5027037;28;20048;-71
2022/03/16 01:55:43;;;;;;;10.27;5.10;;;;;;;0.37;100.00;97301.84;5029670;28;20111;-70
2022/03/16 01:58:10;;;;;;;10.80;5.25;;;;;;;0.42;100.00;97312.72;5028906;28;20032;-74
2022/03/16 02:00:37;;;;;;;8.70;4.63;;;;;;;0.35;100.00;97303.81;5032352;28;20121;-75
2022/03/16 02:03:02;;;;;;;11.02;4.97;;;;;;;0.35;100.00;97307.28;5027562;28;20029;-72
2022/03/16 02:05:28;;;;;;;10.23;5.20;;;;;;;0.34;100.00;97302.19;5025933;28;20372;-71
2022/03/16 02:07:54;;;;;;;8.38;4.32;;;;;;;0.34;100.00;97310.06;5027854;28;20043;-70
2022/03/16 02:10:21;;;;;;;8.90;4.70;;;;;;;0.38;100.00;97306.13;5028939;28;20424;-70
2022/03/16 02:12:49;;;;;;;12.80;5.15;;;;;;;0.39;100.00;97302.50;5031280;28;20468;-70
2022/03/16 02:15:16;;;;;;;9.63;5.15;;;;;;;0.37;100.00;97304.47;5028927;28;20064;-74
2022/03/16 02:17:42;;;;;;;10.65;4.78;;;;;;;0.30;100.00;97300.84;5029443;28;20038;-70
2022/03/16 02:20:09;;;;;;;9.77;4.82;;;;;;;0.27;100.00;97305.47;5029314;28;20654;-72
2022/03/16 02:23:07;;;;;;;11.77;5.07;;;;;;;0.32;100.00;97301.53;5029573;28;20540;-71
2022/03/16 02:25:47;;;;;;;13.27;4.68;;;;;;;0.30;100.00;97306.09;5003453;28;20071;-74
2022/03/16 02:28:13;;;;;;;7.47;4.68;;;;;;;0.47;100.00;97302.53;5030492;28;20036;-72
2022/03/16 02:30:38;;;;;;;9.88;4.47;;;;;;;0.54;100.00;97300.84;5030859;28;20491;-70
2022/03/16 02:33:04;;;;;;;9.40;4.65;;;;;;;0.53;100.00;97304.47;5030187;28;20048;-74
2022/03/16 02:35:31;;;;;;;10.90;4.88;;;;;;;0.50;100.00;97295.09;5028999;28;20534;-75
2022/03/16 02:37:58;;;;;;;8.30;4.90;;;;;;;0.40;100.00;97298.91;5028950;28;20065;-71
2022/03/16 02:40:24;;;;;;;11.65;4.35;;;;;;;0.34;100.00;97303.00;5027479;28;20033;-75
2022/03/16 02:42:50;;;;;;;8.07;4.43;;;;;;;0.30;100.00;97306.94;5028545;28;20434;-70
2022/03/16 02:45:17;;;;;;;6.57;4.05;;;;;;;0.38;100.00;97311.38;5029217;28;20040;-75
2022/03/16 02:47:43;;;;;;;8.23;3.22;;;;;;;0.45;100.00;97309.75;5028952;28;20587;-70
2022/03/16 02:50:10;;;;;;;9.13;4.32;;;;;;;0.48;100.00;97309.44;5026665;28;20052;-75
2022/03/16 02:52:36;;;;;;;8.23;4.28;;;;;;;0.49;100.00;97308.44;5026524;28;20045;-71
2022/03/16 02:55:04;;;;;;;8.23;4.30;;;;;;;0.51;100.00;97311.72;5029807;28;20464;-70
2022/03/16 02:57:29;;;;;;;8.52;4.15;;;;;;;0.49;100.00;97313.72;5029544;28;20120;-70
2022/03/16 02:59:55;;;;;;;9.88;5.43;;;;;;;0.49;100.00;97303.19;5026881;28;20030;-74
2022/03/16 03:02:21;;;;;;;8.35;5.00;;;;;;;0.44;100.00;97316.81;5028459;28;20036;-73
2022/03/16 03:04:46;;;;;;;8.45;4.22;;;;;;;0.63;100.00;97309.59;5026902;28;21084;-71
2022/03/16 03:07:11;;;;;;;11.57;5.20;;;;;;;0.68;100.00;97308.09;5030549;28;20480;-71
2022/03/16 03:09:38;;;;;;;12.18;4.80;;;;;;;0.73;100.00;97311.06;5029384;28;20049;-71
2022/03/16 03:12:04;;;;;;;11.48;5.60;;;;;;;0.69;100.00;97306.28;5028792;28;20044;-73
2022/03/16 03:14:31;;;;;;;13.13;5.97;;;;;;;0.70;100.00;97308.78;5026583;28;20100;-73
2022/03/16 03:16:57;;;;;;;12.10;5.97;;;;;;;0.66;100.00;97306.63;5028448;28;20140;-71
2022/03/16 03:19:22;;;;;;;13.93;5.35;;;;;;;0.73;100.00;97323.41;5032082;28;20032;-73
2022/03/16 03:21:48;;;;;;;10.50;5.07;;;;;;;0.72;100.00;97306.78;5032732;28;20051;-71
2022/03/16 03:24:13;;;;;;;15.20;6.03;;;;;;;0.76;100.00;97323.06;5030542;28;20037;-72
2022/03/16 03:26:39;;;;;;;10.55;5.05;;;;;;;0.82;100.00;97317.16;5033820;28;20060;-72
2022/03/16 03:29:04;;;;;;;8.57;5.47;;;;;;;0.78;100.00;97311.41;5032312;28;20492;-71
2022/03/16 03:31:30;;;;;;;9.95;5.60;;;;;;;0.77;100.00;97311.53;5030782;28;20045;-72
2022/03/16 03:33:56;;;;;;;8.93;4.93;;;;;;;0.78;100.00;97305.31;5032677;28;20037;-70
2022/03/16 03:36:21;;;;;;;12.63;5.85;;;;;;;0.68;100.00;97307.28;5031043;28;20431;-70
2022/03/16 03:38:47;;;;;;;8.85;4.72;;;;;;;0.73;100.00;97304.97;5033779;28;20033;-71
2022/03/16 03:41:14;;;;;;;10.77;4.97;;;;;;;0.83;100.00;97316.97;5031472;28;20116;-72
2022/03/16 03:43:39;;;;;;;10.98;5.07;;;;;;;0.78;100.00;97313.22;5037055;28;20049;-70
2022/03/16 03:46:05;;;;;;;11.98;5.65;;;;;;;0.77;100.00;97316.81;5033390;28;20470;-71
2022/03/16 03:48:30;;;;;;;8.93;5.10;;;;;;;0.75;100.00;97310.91;5029764;28;20041;-72
2022/03/16 03:50:56;;;;;;;8.32;4.47;;;;;;;0.64;100.00;97317.34;5029840;28;20038;-71
2022/03/16 03:53:21;;;;;;;5.40;3.17;;;;;;;0.61;100.00;97315.00;5030926;28;20454;-71
2022/03/16 03:55:47;;;;;;;8.73;5.15;;;;;;;0.57;100.00;97321.63;5032655;28;20287;-72
2022/03/16 03:58:12;;;;;;;10.15;5.30;;;;;;;0.56;100.00;97327.88;5031335;28;20060;-73
2022/03/16 04:00:38;;;;;;;10.80;5.28;;;;;;;0.49;100.00;97314.53;5031399;28;20051;-71
2022/03/16 04:03:04;;;;;;;8.52;5.00;;;;;;;0.51;100.00;97324.91;5030698;28;20647;-70
2022/03/16 04:05:29;;;;;;;10.23;4.85;;;;;;;0.51;100.00;97323.09;5031458;28;20052;-71
2022/03/16 04:07:55;;;;;;;9.05;4.72;;;;;;;0.50;100.00;97328.53;5031082;28;20029;-70
2022/03/16 04:10:20;;;;;;;9.77;4.38;;;;;;;0.48;100.00;97333.97;5032414;28;20492;-71
2022/03/16 04:12:46;;;;;;;10.43;4.88;;;;;;;0.43;100.00;97335.44;5033827;28;20376;-72
2022/03/16 04:15:12;;;;;;;13.45;6.57;;;;;;;0.35;100.00;97338.88;5032271;28;20033;-70
2022/03/16 04:17:37;;;;;;;13.10;6.68;;;;;;;0.37;100.00;97333.44;5033519;28;20067;-71
2022/03/16 04:20:05;;;;;;;7.82;4.05;;;;;;;0.41;100.00;97337.41;5030130;28;20376;-70
2022/03/16 04:22:31;;;;;;;10.60;5.32;;;;;;;0.50;100.00;97339.06;5031125;28;20049;-70
2022/03/16 04:24:56;;;;;;;8.02;4.18;;;;;;;0.58;100.00;97341.69;5037108;28;20025;-74
2022/03/16 04:27:24;;;;;;;7.25;4.00;;;;;;;0.58;100.00;97341.69;5032367;28;20041;-71
2022/03/16 04:29:49;;;;;;;12.48;5.85;;;;;;;0.56;100.00;97341.03;5029733;28;20115;-70
2022/03/16 04:32:15;;;;;;;6.38;3.65;;;;;;;0.54;100.00;97343.00;5031785;28;20137;-71
2022/03/16 04:34:41;;;;;;;10.82;6.18;;;;;;;0.53;100.00;97334.28;5030807;28;20075;-71
2022/03/16 04:37:06;;;;;;;8.82;4.80;;;;;;;0.50;100.00;97334.59;5030684;28;20111;-71
2022/03/16 04:39:32;;;;;;;11.38;5.78;;;;;;;0.50;100.00;97328.53;5030929;28;20057;-72
2022/03/16 04:41:58;;;;;;;6.47;3.78;;;;;;;0.60;100.00;97341.53;5027871;28;20047;-72
2022/03/16 04:44:23;;;;;;;10.30;5.47;;;;;;;0.68;100.00;97333.63;5031199;28;20029;-74
2022/03/16 04:46:49;;;;;;;12.95;7.45;;;;;;;0.67;100.00;97329.34;5031013;28;20033;-73
2022/03/16 04:49:14;;;;;;;10.18;6.38;;;;;;;0.68;100.00;97333.63;5028630;28;20033;-74
2022/03/16 04:51:40;;;;;;;12.75;6.07;;;;;;;0.69;100.00;97332.63;5029044;28;20072;-70
2022/03/16 04:54:07;;;;;;;10.23;6.00;;;;;;;0.73;100.00;97336.59;5032412;28;20480;-73
2022/03/16 04:56:34;;;;;;;24.27;11.63;;;;;;;0.76;100.00;97339.69;5031006;28;20118;-74
2022/03/16 04:58:59;;;;;;;12.52;7.20;;;;;;;0.85;100.00;97332.63;5028301;28;20628;-72
2022/03/16 05:01:25;;;;;;;20.13;10.73;;;;;;;0.86;100.00;97322.91;5021144;28;20069;-71
2022/03/16 05:03:51;;;;;;;24.55;12.15;;;;;;;0.91;100.00;97321.41;5010914;28;20034;-70
2022/03/16 05:06:16;;;;;;;14.57;7.80;;;;;;;0.96;100.00;97328.84;5008859;28;20053;-74
2022/03/16 05:08:45;;;;;;;13.65;8.50;;;;;;;0.99;100.00;97320.59;5008830;28;20037;-71
2022/03/16 05:11:11;;;;;;;8.93;5.60;;;;;;;1.04;100.00;97326.19;5008707;28;20029;-73
2022/03/16 05:13:37;;;;;;;11.00;6.20;;;;;;;1.02;100.00;97315.81;5012196;28;20048;-73
2022/03/16 05:16:03;;;;;;;11.13;6.85;;;;;;;1.05;100.00;97330.47;5009925;28;20428;-74
2022/03/16 05:18:29;;;;;;;12.73;7.50;;;;;;;1.11;100.00;97327.16;5010817;28;20033;-72
2022/03/16 05:20:55;;;;;;;14.75;6.82;;;;;;;1.13;100.00;97327.00;5009579;28;20037;-71
2022/03/16 05:23:20;;;;;;;11.25;6.38;;;;;;;1.12;100.00;97331.44;5009441;28;20046;-71
2022/03/16 05:25:46;;;;;;;12.77;7.10;;;;;;;1.09;100.00;97322.06;5013555;28;20383;-73
2022/03/16 05:28:12;;;;;;;13.43;6.65;;;;;;;1.08;100.00;97333.56;5010276;28;20043;-71
2022/03/16 05:30:38;;;;;;;16.35;8.68;;;;;;;1.05;100.00;97330.47;5014138;28;20045;-70
2022/03/16 05:33:03;;;;;;;10.07;5.80;;;;;;;1.06;100.00;97325.00;5027481;28;20051;-73
2022/03/16 05:35:30;;;;;;;11.88;6.88;;;;;;;1.07;100.00;97333.75;5030133;28;20030;-71
2022/03/16 05:37:56;;;;;;;10.80;7.63;;;;;;;1.08;100.00;97340.66;5030953;28;20089;-73
2022/03/16 05:40:22;;;;;;;11.38;6.35;;;;;;;1.10;100.00;97336.88;5027467;28;20446;-72
2022/03/16 05:42:50;;;;;;;10.18;6.60;;;;;;;1.11;100.00;97350.88;5026538;28;20030;-71
2022/03/16 05:45:16;;;;;;;8.95;5.78;;;;;;;1.08;100.00;97335.38;5028231;28;20052;-74
2022/03/16 05:47:41;;;;;;;7.88;5.63;;;;;;;1.12;100.00;97344.63;5027552;28;20025;-70
2022/03/16 05:50:07;;;;;;;11.73;7.40;;;;;;;1.11;100.00;97348.25;5025177;28;20051;-71
2022/03/16 05:52:33;;;;;;;15.85;9.07;;;;;;;1.12;100.00;97349.91;5028417;28;20041;-71
2022/03/16 05:55:00;;;;;;;12.10;6.90;;;;;;;1.16;100.00;97342.47;5027012;28;20391;-72
2022/03/16 05:57:26;;;;;;;11.93;6.50;;;;;;;1.17;100.00;97354.66;5030742;28;20438;-72
2022/03/16 05:59:51;;;;;;;10.60;5.88;;;;;;;1.20;100.00;97355.16;5031573;28;20033;-73
2022/03/16 06:02:18;;;;;;;14.05;8.85;;;;;;;1.19;100.00;97347.41;5030324;28;20052;-71
2022/03/16 06:04:44;;;;;;;10.02;6.30;;;;;;;1.19;100.00;97358.78;5031407;28;20337;-71
2022/03/16 06:07:10;;;;;;;11.82;6.53;;;;;;;1.20;100.00;97362.25;5029092;28;20111;-71
2022/03/16 06:09:36;;;;;;;12.20;9.00;;;;;;;1.22;100.00;97362.88;5027281;28;20037;-71
2022/03/16 06:12:03;;;;;;;13.20;7.25;;;;;;;1.21;100.00;97367.34;5028385;28;20029;-75
2022/03/16 06:14:29;;;;;;;12.93;7.57;;;;;;;1.25;100.00;97373.13;5028927;28;20107;-74
2022/03/16 06:16:56;;;;;;;10.02;6.60;;;;;;;1.25;100.00;97373.94;5029093;28;20356;-71
2022/03/16 06:19:22;;;;;;;10.23;5.85;;;;;;;1.27;100.00;97368.50;5028100;28;20044;-75
2022/03/16 06:21:48;;;;;;;14.43;7.30;;;;;;;1.32;100.00;97389.88;5031875;28;20032;-73
2022/03/16 06:24:14;;;;;;;12.30;7.30;;;;;;;1.28;100.00;97383.31;5029272;28;20052;-74
2022/03/16 06:26:41;;;;;;;10.55;6.68;;;;;;;1.35;100.00;97384.31;5032930;28;20024;-72
2022/03/16 06:29:07;;;;;;;10.95;5.43;;;;;;;1.36;100.00;97378.03;5029074;28;20108;-71
2022/03/16 06:31:33;;;;;;;16.08;8.75;;;;;;;1.41;100.00;97383.63;5029105;28;20049;-74
2022/03/16 06:33:59;;;;;;;14.18;6.90;;;;;;;1.46;100.00;97385.75;5027181;28;20096;-71
2022/03/16 06:36:26;;;;;;;12.75;7.05;;;;;;;1.52;100.00;97387.72;5027302;28;20447;-72
2022/03/16 06:38:51;;;;;;;14.32;7.50;;;;;;;1.58;100.00;97392.31;5027902;28;20434;-72
2022/03/16 06:41:17;;;;;;;14.13;7.18;;;;;;;1.60;100.00;97377.13;5029268;28;20427;-71
2022/03/16 06:43:42;;;;;;;16.02;8.40;;;;;;;1.69;100.00;97389.31;5029049;28;20125;-73
2022/03/16 06:46:08;;;;;;;16.50;8.93;;;;;;;1.78;100.00;97395.38;5029526;28;20463;-71
2022/03/16 06:48:33;;;;;;;11.32;6.70;;;;;;;1.80;100.00;97391.59;5029161;28;20059;-71
2022/03/16 06:50:59;;;;;;;9.85;6.47;;;;;;;1.84;100.00;97386.78;5028511;28;20112;-72
2022/03/16 06:53:24;;;;;;;13.13;6.82;;;;;;;1.91;100.00;97391.22;5026879;28;20102;-73
2022/03/16 06:55:50;;;;;;;12.65;7.18;;;;;;;1.98;100.00;97383.44;5029946;28;20116;-71
2022/03/16 06:58:16;;;;;;;11.73;6.60;;;;;;;2.03;100.00;97383.75;5026391;28;20029;-72
2022/03/16 07:00:42;;;;;;;18.38;9.38;;;;;;;2.14;100.00;97378.06;5030466;28;20057;-71
2022/03/16 07:03:07;;;;;;;15.02;8.65;;;;;;;2.19;100.00;97367.00;5024867;28;20037;-72
2022/03/16 07:05:39;;;;;;;11.23;6.00;;;;;;;2.26;100.00;97372.38;5027480;28;20506;-71
2022/03/16 07:08:11;;;;;;;;;;;;;;;2.29;100.00;97362.31;5028217;28;20116;-71
2022/03/16 07:10:38;;;;;;;12.00;8.25;;;;;;;2.33;100.00;97358.31;5029883;28;19963;-71
2022/03/16 07:13:04;;;;;;;14.52;7.35;;;;;;;2.36;100.00;97357.16;5025897;28;20530;-72
2022/03/16 07:15:34;;;;;;;18.58;8.73;;;;;;;2.45;100.00;97362.22;5030081;28;20065;-72
2022/03/16 07:18:02;;;;;;;11.77;7.22;;;;;;;2.51;100.00;97365.97;5029718;28;20347;-72
2022/03/16 07:20:28;;;;;;;13.80;7.03;;;;;;;2.55;100.00;97358.50;5027625;28;20492;-71
2022/03/16 07:23:23;;;;;;;12.65;6.97;;;;;;;2.57;100.00;97360.00;5028858;28;20025;-71
2022/03/16 07:25:50;;;;;;;13.35;8.40;;;;;;;2.59;100.00;97368.56;5017235;28;20056;-71
2022/03/16 07:28:16;;;;;;;17.98;10.23;;;;;;;2.64;100.00;97365.38;5028099;28;20038;-71
2022/03/16 07:30:42;;;;;;;16.27;8.02;;;;;;;2.71;100.00;97366.31;5029317;28;20072;-71
2022/03/16 07:33:09;;;;;;;16.05;7.60;;;;;;;2.75;100.00;97363.16;5028521;28;20034;-72
2022/03/16 07:35:35;;;;;;;12.60;8.18;;;;;;;2.84;100.00;97358.63;5028761;28;20098;-73
2022/03/16 07:38:02;;;;;;;13.73;8.35;;;;;;;2.81;100.00;97345.78;5029397;28;20322;-72
2022/03/16 07:40:30;;;;;;;11.40;7.10;;;;;;;2.94;100.00;97361.00;5025114;28;20041;-71
2022/03/16 07:42:57;;;;;;;12.30;7.75;;;;;;;3.01;100.00;97357.47;5026837;28;20038;-71
2022/03/16 07:45:23;;;;;;;14.35;8.00;;;;;;;3.08;100.00;97365.53;5024796;28;20364;-71
2022/03/16 07:47:50;;;;;;;17.00;9.07;;;;;;;3.14;100.00;97364.00;5024516;28;20077;-74
2022/03/16 07:50:18;;;;;;;19.77;9.13;;;;;;;3.22;100.00;97363.91;5025208;28;20479;-71
2022/03/16 07:52:44;;;;;;;16.98;9.43;;;;;;;3.31;100.00;97368.13;5026008;28;20036;-71
2022/03/16 07:55:10;;;;;;;16.52;8.40;;;;;;;3.38;100.00;97361.09;5029111;28;20127;-71
2022/03/16 07:57:37;;;;;;;18.55;10.18;;;;;;;3.42;100.00;97351.78;5026821;28;20041;-71
2022/03/16 08:00:05;;;;;;;16.00;9.93;;;;;;;3.48;100.00;97353.72;5028562;28;20373;-73
2022/03/16 08:02:30;;;;;;;15.18;8.57;;;;;;;3.51;100.00;97360.50;5029945;28;20050;-70
2022/03/16 08:04:58;;;;;;;18.52;10.77;;;;;;;3.52;100.00;97370.06;5032463;28;20144;-71
2022/03/16 08:07:28;;;;;;;17.33;9.65;;;;;;;3.51;100.00;97363.94;5030807;28;20035;-71
2022/03/16 08:09:53;;;;;;;17.45;10.60;;;;;;;3.55;100.00;97353.81;5031791;28;20049;-71
2022/03/16 08:12:19;;;;;;;15.13;8.75;;;;;;;3.68;100.00;97354.00;5031969;28;20034;-71
2022/03/16 08:14:45;;;;;;;17.85;8.75;;;;;;;3.77;100.00;97349.44;5028906;28;20041;-73
2022/03/16 08:17:10;;;;;;;15.93;7.95;;;;;;;3.80;100.00;97354.34;5032619;28;20044;-71
2022/03/16 08:19:35;;;;;;;15.18;9.90;;;;;;;3.88;100.00;97357.72;5030055;28;20068;-71
2022/03/16 08:22:01;;;;;;;21.15;9.27;;;;;;;4.02;100.00;97360.53;5032473;28;20041;-71
2022/03/16 08:24:26;;;;;;;18.35;10.52;;;;;;;4.14;100.00;97364.38;5032209;28;20036;-71
2022/03/16 08:26:52;;;;;;;16.13;9.65;;;;;;;4.17;100.00;97356.84;5033062;28;20041;-74
2022/03/16 08:29:18;;;;;;;22.05;10.65;;;;;;;4.23;100.00;97351.81;5029592;28;20049;-71
2022/03/16 08:31:43;;;;;;;16.25;7.95;;;;;;;4.26;100.00;97362.03;5031369;28;20045;-73
2022/03/16 08:34:09;;;;;;;22.45;12.35;;;;;;;4.34;100.00;97375.19;5032472;28;20068;-71
2022/03/16 08:36:34;;;;;;;17.92;11.30;;;;;;;4.43;100.00;97366.91;5031619;28;20379;-74
2022/03/16 08:39:03;;;;;;;15.90;9.07;;;;;;;4.48;100.00;97359.22;5030655;28;20431;-72
2022/03/16 08:41:31;;;;;;;16.20;9.15;;;;;;;4.53;100.00;97369.28;5031008;28;20037;-73
2022/03/16 08:43:57;;;;;;;14.00;9.18;;;;;;;4.46;100.00;97353.31;5033380;28;20042;-71
2022/03/16 08:46:22;;;;;;;17.05;10.45;;;;;;;4.52;100.00;97367.66;5032704;28;20037;-71
2022/03/16 08:48:48;;;;;;;21.70;9.68;;;;;;;4.70;100.00;97364.56;5029655;28;20052;-71
2022/03/16 08:51:13;;;;;;;18.83;9.68;;;;;;;4.64;100.00;97365.31;5029022;28;20024;-73
2022/03/16 08:53:39;;;;;;;19.27;8.93;;;;;;;4.64;100.00;97360.81;5030154;28;20061;-71
2022/03/16 08:56:04;;;;;;;16.77;10.50;;;;;;;4.90;100.00;97362.06;5033015;28;20041;-74
2022/03/16 08:58:30;;;;;;;15.27;8.95;;;;;;;5.07;100.00;97368.78;4999674;28;20057;-72
2022/03/16 09:00:56;;;;;;;16.17;8.88;;;;;;;4.90;100.00;97370.03;5017657;28;20956;-74
2022/03/16 09:03:21;;;;;;;17.30;10.70;;;;;;;4.84;100.00;97370.81;5017454;28;20271;-71
2022/03/16 09:05:47;;;;;;;14.38;8.40;;;;;;;4.87;100.00;97370.44;5029085;28;20050;-73
2022/03/16 09:08:13;;;;;;;18.23;10.25;;;;;;;4.91;100.00;97369.88;5003016;28;20045;-72
2022/03/16 09:10:38;;;;;;;22.10;13.70;;;;;;;4.78;100.00;97371.56;5001733;28;20050;-74
2022/03/16 09:13:06;;;;;;;18.83;12.45;;;;;;;4.78;100.00;97360.97;5029082;28;20113;-73
2022/03/16 09:15:31;;;;;;;22.30;12.73;;;;;;;4.78;100.00;97366.25;5031094;28;20069;-71
2022/03/16 09:17:57;;;;;;;17.52;8.35;;;;;;;4.87;100.00;97365.13;5030016;28;20128;-71
2022/03/16 09:20:23;;;;;;;20.00;10.82;;;;;;;4.84;100.00;97368.16;5029217;28;20044;-73
2022/03/16 09:22:48;;;;;;;20.48;10.05;;;;;;;4.87;100.00;97342.06;5031082;28;20399;-74
2022/03/16 09:25:14;;;;;;;19.52;10.55;;;;;;;5.34;100.00;97348.56;5028509;28;20567;-74
2022/03/16 09:27:39;;;;;;;17.13;10.07;;;;;;;5.34;100.00;97337.13;5026675;28;20049;-73
2022/03/16 09:30:05;;;;;;;17.52;9.98;;;;;;;5.15;100.00;97351.91;5031595;28;20044;-72
2022/03/16 09:32:33;;;;;;;16.65;9.50;;;;;;;5.25;100.00;97339.09;5027935;28;20083;-71
2022/03/16 09:34:59;;;;;;;17.75;10.25;;;;;;;5.22;100.00;97352.78;5031620;28;20124;-72
2022/03/16 09:37:25;;;;;;;22.35;10.32;;;;;;;5.31;100.00;97330.38;5030400;28;20147;-71
2022/03/16 09:39:51;;;;;;;19.05;12.48;;;;;;;5.27;100.00;97337.06;5028501;28;20529;-74
2022/03/16 09:42:19;;;;;;;19.02;10.38;;;;;;;5.47;100.00;97343.34;5028157;28;20053;-71
2022/03/16 09:44:46;;;;;;;21.80;11.00;;;;;;;5.76;100.00;97341.47;5029626;28;20040;-72
2022/03/16 09:47:12;;;;;;;15.98;9.93;;;;;;;5.95;100.00;97339.97;5030581;28;20044;-71
2022/03/16 09:49:38;;;;;;;21.73;11.10;;;;;;;5.71;100.00;97336.75;5031301;28;20090;-72
2022/03/16 09:52:09;;;;;;;16.40;9.88;;;;;;;5.80;100.00;97348.84;5030341;28;20376;-70
2022/03/16 09:54:35;;;;;;;18.90;8.98;;;;;;;6.20;100.00;97340.25;5031401;28;20151;-72
2022/03/16 09:57:01;;;;;;;15.50;8.00;;;;;;;6.34;100.00;97326.81;5029099;28;20067;-73
2022/03/16 09:59:26;;;;;;;26.17;14.90;;;;;;;6.27;100.00;97343.75;5026272;28;20060;-71
2022/03/16 10:02:21;;;;;;;15.38;7.50;;;;;;;6.56;100.00;97335.47;5028179;28;20041;-71
2022/03/16 10:04:47;;;;;;;21.67;10.38;;;;;;;6.54;100.00;97334.03;5031713;28;20060;-73
2022/03/16 10:07:13;;;;;;;20.15;11.27;;;;;;;6.99;100.00;97327.09;5027597;28;20037;-72
2022/03/16 10:15:19;;;;;;;18.85;10.23;;;;;;;7.23;100.00;97337.13;5028355;28;20034;-71
2022/03/16 10:17:49;;;;;;;17.08;10.45;;;;;;;7.67;100.00;97348.13;5030325;28;20033;-72
2022/03/16 10:20:35;;;;;;;17.35;10.07;;;;;;;7.93;100.00;97337.41;5027089;28;20045;-73
2022/03/16 10:23:20;;;;;;;21.65;11.75;;;;;;;8.08;100.00;97326.47;5030460;28;20037;-72
2022/03/16 10:25:51;;;;;;;19.23;10.68;;;;;;;8.40;100.00;97338.06;5031518;28;20088;-71
2022/03/16 10:28:19;;;;;;;16.10;9.35;;;;;;;8.85;100.00;97330.00;5026891;28;20491;-73
2022/03/16 10:31:02;;;;;;;18.48;10.07;;;;;;;9.30;100.00;97335.19;5026802;28;20068;-71
2022/03/16 10:33:31;;;;;;;18.35;10.32;;;;;;;10.08;100.00;97330.06;5029349;28;20045;-73
2022/03/16 10:36:08;;;;;;;15.90;9.25;;;;;;;10.06;100.00;97318.78;5030973;28;20144;-72
2022/03/16 10:38:46;;;;;;;22.58;11.18;;;;;;;11.12;100.00;97317.31;5030378;28;20067;-72
2022/03/16 10:46:55;;;;;;;17.70;9.98;;;;;;;12.61;100.00;97323.00;5004677;28;20610;-73
2022/03/16 10:49:22;;;;;;;18.33;10.60;;;;;;;13.18;98.45;97311.34;5028711;28;20040;-72
2022/03/16 10:52:12;;;;;;;23.42;13.02;;;;;;;13.03;97.19;97301.97;5028434;28;20422;-74
2022/03/16 10:54:38;;;;;;;17.15;11.75;;;;;;;12.91;95.39;97320.00;5029761;28;20045;-71
2022/03/16 10:57:10;;;;;;;25.42;12.52;;;;;;;13.41;97.45;97313.88;5029249;28;20594;-74
2022/03/16 10:59:37;;;;;;;17.67;9.90;;;;;;;13.31;92.51;97308.38;5023616;28;20140;-72
2022/03/16 11:02:14;;;;;;;23.10;11.57;;;;;;;12.91;95.70;97311.13;5024469;28;20037;-74
2022/03/16 11:04:47;;;;;;;25.73;12.60;;;;;;;14.91;88.99;97308.22;5030716;28;20096;-71
2022/03/16 11:07:12;;;;;;;20.73;11.73;;;;;;;15.69;78.41;97304.00;5029237;28;20443;-75
2022/03/16 11:09:39;;;;;;;19.40;10.73;;;;;;;15.36;76.67;97318.59;5028805;28;20037;-72
2022/03/16 11:14:52;;;;;;;22.40;12.45;;;;;;;15.25;77.49;97293.44;5028339;28;20793;-73
2022/03/16 11:17:18;;;;;;;23.48;11.82;;;;;;;15.67;75.47;97303.47;5028707;28;20049;-72
2022/03/16 11:19:47;;;;;;;17.38;9.82;;;;;;;14.82;77.21;97282.81;5031949;28;20084;-71
2022/03/16 11:22:12;;;;;;;22.85;12.75;;;;;;;15.03;77.68;97306.19;5028801;28;20068;-71
2022/03/16 11:25:23;;;;;;;17.36;10.74;;;;;;;13.90;90.94;97292.53;4523582;28;10000523;-72
2022/03/16 11:27:51;;;;;;;18.65;10.45;;;;;;;15.19;82.52;97293.66;4973054;28;20637;-73
2022/03/16 11:30:29;;;;;;;15.77;8.70;;;;;;;15.42;74.97;97297.88;4970585;28;20266;-75
2022/03/16 11:33:04;;;;;;;20.20;11.15;;;;;;;15.84;71.69;97306.00;5003335;28;20077;-72
2022/03/16 11:35:40;;;;;;;23.67;12.90;;;;;;;17.79;60.78;97306.13;5027540;28;20041;-73
2022/03/16 11:38:09;;;;;;;18.85;11.30;;;;;;;17.20;59.73;97304.00;5027587;28;20033;-71